Time;durP1;ratioP1;P1;durP2;ratioP2;P2;SDS_P1;SDS_P2;PMS_P1;PMS_P2;Temp;Humidity;BMP_temperature;BMP_pressure;BME280_temperature;BME280_humidity;BME280_pressure;Samples;Min_cycle;Max_cycle;Signal;HPM_P1;HPM_P2
2021/04/04 00:01:13;;;;;;;9.30;3.53;;;;;;;3.06;64.39;101071.59;20993148;28;20114;-70
2021/04/04 00:11:14;;;;;;;11.80;3.80;;;;;;;2.96;65.80;101072.56;20974243;28;20439;-72
2021/04/04 00:21:15;;;;;;;8.45;3.30;;;;;;;2.97;64.24;101066.53;20992248;28;20052;-71
2021/04/04 00:31:16;;;;;;;14.35;3.97;;;;;;;2.86;65.29;101060.63;20991056;28;20527;-70
2021/04/04 00:41:17;;;;;;;9.57;3.47;;;;;;;2.80;66.22;101056.38;20989998;28;20044;-70
2021/04/04 00:51:18;;;;;;;14.63;3.88;;;;;;;2.73;65.75;101059.09;20989734;28;20044;-71
2021/04/04 01:01:21;;;;;;;8.45;3.67;;;;;;;2.61;66.77;101046.28;20988493;28;20496;-71
2021/04/04 01:11:30;;;;;;;14.48;3.95;;;;;;;2.54;67.50;101048.94;20987734;28;20044;-71
2021/04/04 01:21:53;;;;;;;8.57;3.53;;;;;;;2.53;68.21;101042.09;20987793;28;20377;-71
2021/04/04 01:31:55;;;;;;;10.90;3.83;;;;;;;2.59;67.44;101042.00;20986688;28;20470;-71
2021/04/04 01:41:57;;;;;;;10.77;3.60;;;;;;;2.62;67.82;101043.69;20986238;28;20064;-71
2021/04/04 01:51:59;;;;;;;11.65;3.90;;;;;;;2.45;68.77;101032.69;20985840;28;20049;-71
2021/04/04 02:02:00;;;;;;;12.70;4.07;;;;;;;2.35;68.67;101031.06;20984520;28;20044;-71
2021/04/04 02:12:03;;;;;;;11.10;3.67;;;;;;;2.22;69.71;101030.38;20984967;28;20106;-71
2021/04/04 02:22:04;;;;;;;12.63;3.72;;;;;;;2.14;70.33;101026.97;20985401;28;20049;-71
2021/04/04 02:32:08;;;;;;;11.60;3.67;;;;;;;2.04;70.44;101025.34;20967538;28;20052;-71
2021/04/04 02:42:11;;;;;;;10.32;3.40;;;;;;;1.88;71.09;101019.47;21016414;28;20044;-71
2021/04/04 02:52:17;;;;;;;11.55;4.72;;;;;;;1.62;71.13;101024.88;21011353;28;20045;-71
2021/04/04 03:02:20;;;;;;;8.85;3.70;;;;;;;1.39;72.88;101024.19;20997384;28;20120;-71
2021/04/04 03:12:25;;;;;;;10.35;4.35;;;;;;;1.23;73.52;101022.56;20964975;28;20040;-71
2021/04/04 03:22:26;;;;;;;;;;;;;;;1.21;73.79;101030.31;21012841;28;20048;-71
2021/04/04 03:32:27;;;;;;;11.02;4.25;;;;;;;1.04;73.72;101026.13;20996078;28;19978;-71
2021/04/04 03:42:28;;;;;;;11.82;3.65;;;;;;;1.03;74.04;101034.72;20995216;28;20076;-70
2021/04/04 03:52:31;;;;;;;12.60;4.20;;;;;;;0.93;75.13;101033.91;20994824;28;20048;-71
2021/04/04 04:02:36;;;;;;;16.73;4.60;;;;;;;0.77;74.96;101042.56;20993033;28;20044;-71
2021/04/04 04:12:38;;;;;;;10.27;4.05;;;;;;;0.50;75.79;101043.53;20992519;28;20095;-71
2021/04/04 04:22:40;;;;;;;13.63;4.40;;;;;;;0.62;75.33;101033.16;20992883;28;20048;-70
2021/04/04 04:32:43;;;;;;;13.15;4.03;;;;;;;0.74;75.47;101028.00;20990679;28;20052;-70
2021/04/04 04:42:47;;;;;;;13.45;4.13;;;;;;;0.71;75.58;101027.16;20990390;28;20405;-71
2021/04/04 04:52:49;;;;;;;11.87;4.33;;;;;;;0.62;76.76;101019.44;20989047;28;20106;-70
2021/04/04 05:02:50;;;;;;;8.25;3.85;;;;;;;0.45;76.77;101032.41;20970827;28;20048;-71
2021/04/04 05:12:56;;;;;;;14.82;4.80;;;;;;;0.40;78.29;101029.84;20970158;28;20079;-71
2021/04/04 05:22:57;;;;;;;9.70;4.47;;;;;;;0.49;78.61;101021.22;20987813;28;20118;-71
2021/04/04 05:32:58;;;;;;;7.93;3.80;;;;;;;0.74;76.62;101032.28;20968657;28;20650;-72
2021/04/04 05:43:14;;;;;;;12.00;3.92;;;;;;;1.00;76.16;101039.91;20967677;28;20451;-70
2021/04/04 05:53:26;;;;;;;12.43;4.30;;;;;;;1.16;75.48;101046.69;20984855;28;20647;-69
2021/04/04 06:04:01;;;;;;;11.52;4.93;;;;;;;1.43;74.92;101037.91;20984923;28;20110;-69
2021/04/04 06:14:22;;;;;;;10.73;4.07;;;;;;;1.72;74.29;101048.88;20984698;28;20056;-69
2021/04/04 06:24:32;;;;;;;10.98;4.30;;;;;;;2.14;73.31;101040.75;20966470;28;20052;-69
2021/04/04 06:34:40;;;;;;;11.10;5.13;;;;;;;2.76;70.30;101052.13;20987733;28;20110;-69
2021/04/04 06:45:00;;;;;;;15.07;5.65;;;;;;;3.42;67.92;101046.94;20979172;28;20511;-69
2021/04/04 06:55:08;;;;;;;13.98;6.15;;;;;;;3.90;66.77;101055.69;20979571;28;20040;-69
2021/04/04 07:05:11;;;;;;;17.15;6.50;;;;;;;4.31;66.12;101057.56;20951480;28;20107;-69
2021/04/04 07:15:35;;;;;;;16.83;6.72;;;;;;;4.84;65.58;101064.31;20975311;28;20095;-69
2021/04/04 07:26:03;;;;;;;19.95;6.90;;;;;;;5.02;65.63;101057.91;20975555;28;20102;-69
2021/04/04 07:36:13;;;;;;;20.77;7.00;;;;;;;5.44;65.46;101051.75;20983624;28;20052;-69
2021/04/04 07:46:23;;;;;;;20.00;7.38;;;;;;;5.64;64.29;101042.69;20964886;28;20049;-69
2021/04/04 07:56:33;;;;;;;23.30;8.40;;;;;;;5.86;64.19;101049.91;20975594;28;20049;-69
2021/04/04 08:06:39;;;;;;;21.50;8.13;;;;;;;6.28;62.79;101054.94;20971244;28;20049;-69
2021/04/04 08:16:53;;;;;;;21.30;7.45;;;;;;;6.43;62.25;101050.19;20984201;28;20094;-69
2021/04/04 08:27:26;;;;;;;17.88;7.50;;;;;;;6.83;61.03;101046.47;20991655;28;20466;-68
2021/04/04 08:37:31;;;;;;;25.45;8.32;;;;;;;7.20;60.34;101047.13;21097887;28;20137;-69
2021/04/04 08:47:33;;;;;;;20.03;7.93;;;;;;;7.40;59.48;101036.09;21120756;28;20097;-69
2021/04/04 08:57:47;;;;;;;21.67;9.00;;;;;;;7.63;58.68;101019.72;21101043;28;20048;-69
2021/04/04 09:07:48;;;;;;;20.25;7.50;;;;;;;8.06;57.56;101024.38;21092616;28;20075;-68
2021/04/04 09:17:55;;;;;;;20.88;6.63;;;;;;;8.48;54.57;101022.09;21094715;28;20043;-68
2021/04/04 09:27:58;;;;;;;16.70;6.30;;;;;;;8.80;55.17;101016.53;21112148;28;20040;-68
2021/04/04 09:38:05;;;;;;;16.15;6.75;;;;;;;9.21;51.93;101009.75;21104279;28;20048;-69
2021/04/04 09:48:18;;;;;;;15.23;6.97;;;;;;;9.33;53.72;101006.66;21108901;28;20041;-69
2021/04/04 09:58:31;;;;;;;17.98;5.93;;;;;;;9.90;48.69;100994.75;21114541;28;20721;-70
2021/04/04 10:08:33;;;;;;;19.30;6.45;;;;;;;9.66;50.56;100990.53;21093483;28;20415;-70
2021/04/04 10:18:35;;;;;;;13.27;5.35;;;;;;;10.40;49.09;100974.31;21110986;28;20052;-70
2021/04/04 10:29:05;;;;;;;10.87;3.60;;;;;;;10.45;46.82;100977.56;21116864;28;20114;-69
2021/04/04 10:39:20;;;;;;;10.63;3.95;;;;;;;10.77;44.67;100951.69;21100265;28;20032;-69
2021/04/04 10:49:22;;;;;;;11.60;4.70;;;;;;;10.83;44.17;100952.25;21155536;28;20069;-70
2021/04/04 10:59:23;;;;;;;10.82;4.40;;;;;;;11.27;42.11;100944.91;21160231;28;20044;-70
2021/04/04 11:09:24;;;;;;;11.18;4.53;;;;;;;11.41;40.36;100933.75;21113237;28;20040;-71
2021/04/04 11:19:27;;;;;;;14.43;4.72;;;;;;;11.40;41.15;100937.28;21129354;28;20040;-70
2021/04/04 11:29:28;;;;;;;16.08;5.30;;;;;;;11.35;41.36;100918.31;21127804;28;20121;-70
2021/04/04 11:39:30;;;;;;;15.30;5.30;;;;;;;11.73;41.63;100900.72;21113749;28;20056;-70
2021/04/04 11:49:32;;;;;;;14.00;5.20;;;;;;;11.76;41.73;100893.53;21129541;28;20093;-70
2021/04/04 11:59:33;;;;;;;13.70;5.95;;;;;;;11.93;40.79;100880.41;21118371;28;20732;-69
2021/04/04 12:09:35;;;;;;;16.55;6.30;;;;;;;12.23;42.07;100862.19;21108860;28;20230;-69
2021/04/04 12:19:36;;;;;;;14.05;6.10;;;;;;;11.95;40.26;100854.09;21133253;28;20086;-70
2021/04/04 12:29:48;;;;;;;15.90;6.25;;;;;;;11.79;40.80;100840.06;21127188;28;20044;-70
2021/04/04 12:39:56;;;;;;;14.00;6.50;;;;;;;11.90;40.16;100830.72;21104437;28;20515;-70
2021/04/04 12:50:04;;;;;;;13.75;5.60;;;;;;;11.88;40.46;100823.88;21129308;28;20112;-70
2021/04/04 13:00:14;;;;;;;15.30;6.00;;;;;;;12.23;41.40;100809.72;21112030;28;20766;-70
2021/04/04 13:10:15;;;;;;;13.80;6.05;;;;;;;12.44;41.38;100786.69;21095316;28;20047;-70
2021/04/04 13:20:16;;;;;;;14.45;5.18;;;;;;;12.12;39.74;100775.31;21109063;28;20072;-70
2021/04/04 13:30:28;;;;;;;13.70;6.38;;;;;;;12.16;39.42;100752.38;21119481;28;20044;-70
2021/04/04 13:40:31;;;;;;;11.85;6.43;;;;;;;12.41;38.99;100736.97;21109327;28;20495;-70
2021/04/04 13:50:44;;;;;;;14.45;6.60;;;;;;;12.37;39.68;100724.94;21095172;28;20093;-69
2021/04/04 14:00:47;;;;;;;17.42;6.30;;;;;;;12.64;39.04;100707.63;21095733;28;20097;-69
2021/04/04 14:10:50;;;;;;;13.48;6.40;;;;;;;12.50;39.17;100689.16;21085311;28;20055;-69
2021/04/04 14:20:51;;;;;;;18.02;7.20;;;;;;;12.31;39.48;100680.66;21116462;28;20047;-69
2021/04/04 14:30:52;;;;;;;14.25;6.50;;;;;;;12.63;39.89;100668.31;21109361;28;20048;-68
2021/04/04 14:40:54;;;;;;;14.68;6.28;;;;;;;12.40;38.87;100643.38;21096235;28;20114;-69
2021/04/04 14:50:56;;;;;;;14.52;6.50;;;;;;;12.26;40.01;100631.06;21109760;28;20470;-69
2021/04/04 15:00:57;;;;;;;15.63;6.72;;;;;;;12.69;39.26;100613.66;21115314;28;20569;-69
2021/04/04 15:10:58;;;;;;;15.68;6.15;;;;;;;12.83;39.71;100604.94;21094328;28;20091;-69
2021/04/04 15:21:00;;;;;;;18.95;6.72;;;;;;;12.58;40.09;100599.47;21128637;28;20475;-69
2021/04/04 15:31:01;;;;;;;14.45;6.57;;;;;;;12.76;40.08;100582.59;21127939;28;20093;-69
2021/04/04 15:41:02;;;;;;;16.45;6.53;;;;;;;12.56;41.67;100567.19;21110334;28;20043;-69
2021/04/04 15:51:04;;;;;;;16.58;7.25;;;;;;;12.68;40.94;100567.31;21115226;28;20047;-69
2021/04/04 16:01:05;;;;;;;16.75;7.50;;;;;;;12.69;40.85;100545.38;21116262;28;20097;-70
2021/04/04 16:11:14;;;;;;;18.20;7.53;;;;;;;12.60;40.83;100535.41;21102767;28;20435;-71
2021/04/04 16:21:15;;;;;;;21.88;7.80;;;;;;;12.60;40.30;100535.41;21120444;28;20491;-71
2021/04/04 16:31:22;;;;;;;17.58;7.55;;;;;;;12.33;41.30;100521.31;21126230;28;20411;-71
2021/04/04 16:41:23;;;;;;;16.40;6.47;;;;;;;12.33;42.00;100508.19;21111261;28;20070;-71
2021/04/04 16:51:24;;;;;;;21.85;7.05;;;;;;;12.32;42.08;100499.47;21098015;28;20047;-71
2021/04/04 17:01:25;;;;;;;18.63;7.50;;;;;;;12.07;42.35;100483.50;21114188;28;20043;-71
2021/04/04 17:11:27;;;;;;;19.00;7.53;;;;;;;11.98;43.24;100489.28;21077499;28;20044;-70
2021/04/04 17:21:28;;;;;;;14.45;6.38;;;;;;;11.71;44.86;100477.72;21071333;28;20044;-70
2021/04/04 17:31:28;;;;;;;22.33;7.60;;;;;;;11.37;44.87;100491.91;21142809;28;20105;-70
2021/04/04 17:41:30;;;;;;;21.27;6.32;;;;;;;10.92;47.13;100485.63;21123939;28;20052;-70
2021/04/04 17:51:31;;;;;;;16.38;6.50;;;;;;;10.53;47.89;100491.25;21111814;28;20542;-70
2021/04/04 18:01:32;;;;;;;18.05;6.78;;;;;;;10.50;48.76;100487.94;21091371;28;20043;-70
2021/04/04 18:11:33;;;;;;;14.48;5.60;;;;;;;10.08;50.68;100480.50;21104772;28;20073;-70
2021/04/04 18:21:34;;;;;;;16.05;6.93;;;;;;;9.76;51.53;100474.28;21105648;28;20048;-70
2021/04/04 18:31:35;;;;;;;13.07;5.65;;;;;;;9.38;52.93;100479.63;21076331;28;20062;-70
2021/04/04 18:41:36;;;;;;;16.33;6.18;;;;;;;8.99;54.74;100471.03;21068806;28;20097;-70
2021/04/04 18:51:37;;;;;;;17.13;6.00;;;;;;;8.66;56.21;100469.97;21134912;28;20043;-70
2021/04/04 19:01:38;;;;;;;19.80;6.15;;;;;;;8.39;57.28;100459.00;21125928;28;20040;-70
2021/04/04 19:11:39;;;;;;;12.85;5.60;;;;;;;8.27;57.19;100465.59;21112042;28;20050;-70
2021/04/04 19:21:41;;;;;;;19.02;6.32;;;;;;;8.00;57.89;100465.03;21125493;28;20089;-71
2021/04/04 19:31:43;;;;;;;20.25;7.35;;;;;;;7.70;61.03;100455.88;21123357;28;20051;-70
2021/04/04 19:41:45;;;;;;;23.73;11.00;;;;;;;7.50;61.25;100435.88;21111428;28;20406;-70
2021/04/04 19:51:46;;;;;;;23.35;10.43;;;;;;;7.40;62.13;100439.75;21096905;28;20182;-70
2021/04/04 20:01:48;;;;;;;29.92;13.70;;;;;;;7.17;63.56;100432.00;21120764;28;20050;-70
2021/04/04 20:11:50;;;;;;;22.10;9.32;;;;;;;6.93;63.46;100427.78;21097745;28;20100;-70
2021/04/04 20:21:51;;;;;;;22.75;9.85;;;;;;;6.74;64.05;100425.03;21118486;28;20047;-70
2021/04/04 20:31:52;;;;;;;18.98;7.43;;;;;;;6.28;66.06;100418.09;21103501;28;20073;-70
2021/04/04 20:41:53;;;;;;;22.40;8.45;;;;;;;6.05;67.20;100386.88;21109966;28;20047;-70
2021/04/04 20:51:54;;;;;;;21.58;9.63;;;;;;;5.91;66.63;100385.63;21116157;28;20531;-71
2021/04/04 21:01:55;;;;;;;25.33;8.38;;;;;;;5.52;68.69;100390.44;21095041;28;20459;-69
2021/04/04 21:11:56;;;;;;;20.20;8.75;;;;;;;5.42;69.06;100360.50;21045495;28;20094;-70
2021/04/04 21:21:57;;;;;;;21.30;8.85;;;;;;;5.34;70.58;100364.22;21062714;28;20044;-70
2021/04/04 21:31:58;;;;;;;19.92;8.13;;;;;;;5.24;69.88;100368.03;21075714;28;20457;-71
2021/04/04 21:41:59;;;;;;;24.90;8.80;;;;;;;4.99;71.60;100355.88;21065759;28;20070;-68
2021/04/04 21:52:00;;;;;;;20.27;8.88;;;;;;;4.94;72.72;100333.56;21077371;28;20079;-68
2021/04/04 22:02:04;;;;;;;22.00;10.90;;;;;;;4.94;74.09;100300.69;21124097;28;20123;-68
2021/04/04 22:12:17;;;;;;;27.65;9.32;;;;;;;4.88;73.70;100287.94;21039788;28;20472;-68
2021/04/04 22:22:20;;;;;;;37.33;12.02;;;;;;;4.84;74.25;100290.69;21067087;28;20048;-69
2021/04/04 22:32:23;;;;;;;23.23;9.93;;;;;;;4.65;73.48;100267.09;21067709;28;20102;-68
2021/04/04 22:42:23;;;;;;;24.60;11.55;;;;;;;4.62;74.46;100249.06;21066932;28;20044;-69
2021/04/04 22:52:25;;;;;;;21.08;9.80;;;;;;;4.45;74.98;100248.75;20976504;22;20053;-69
2021/04/04 23:02:26;;;;;;;17.70;8.93;;;;;;;4.14;76.37;100257.47;20858048;28;20067;-70
2021/04/04 23:12:31;;;;;;;22.88;8.50;;;;;;;4.00;76.98;100249.28;20902192;28;20123;-70
2021/04/04 23:22:37;;;;;;;18.20;8.02;;;;;;;3.81;77.43;100238.59;20899825;28;20052;-70
2021/04/04 23:32:38;;;;;;;16.95;8.15;;;;;;;3.71;77.47;100213.88;20904915;28;20060;-70
2021/04/04 23:42:39;;;;;;;17.45;9.40;;;;;;;3.70;77.41;100201.00;20913987;28;20115;-70
2021/04/04 23:52:41;;;;;;;21.48;9.63;;;;;;;3.74;76.12;100192.25;20913603;28;20049;-70
